createdAt,value
2018-07-27T00:02:16.683Z,98825.84
2018-07-27T00:04:45.251Z,98826.87
2018-07-27T00:07:14.255Z,98825.97
2018-07-27T00:09:42.685Z,98828.38
2018-07-27T00:12:11.153Z,98835.84
2018-07-27T00:14:39.680Z,98834.64
2018-07-27T00:17:08.112Z,98827.89
2018-07-27T00:19:36.552Z,98825.42
2018-07-27T00:22:04.988Z,98821.72
2018-07-27T00:24:33.612Z,98818.07
2018-07-27T00:27:02.046Z,98818.52
2018-07-27T00:29:30.448Z,98824.52
2018-07-27T00:31:58.956Z,98830.31
2018-07-27T00:34:27.339Z,98823.31
2018-07-27T00:36:55.907Z,98824.12
2018-07-27T00:39:24.304Z,98817.77
2018-07-27T00:41:52.720Z,98821.53
2018-07-27T00:44:21.274Z,98822.68
2018-07-27T00:46:49.692Z,98820.03
2018-07-27T00:49:18.355Z,98810.31
2018-07-27T00:51:47.691Z,98811.66
2018-07-27T00:54:16.103Z,98811.32
2018-07-27T00:56:44.568Z,98810.20
2018-07-27T00:59:12.999Z,98812.59
2018-07-27T01:01:41.407Z,98811.02
2018-07-27T01:04:09.853Z,98815.27
2018-07-27T01:06:38.310Z,98811.55
2018-07-27T01:09:08.724Z,98812.70
2018-07-27T01:11:37.175Z,98812.36
2018-07-27T01:14:05.658Z,98812.87
2018-07-27T01:16:34.087Z,98817.56
2018-07-27T01:19:02.515Z,98807.09
2018-07-27T01:21:30.971Z,98801.98
2018-07-27T01:23:59.503Z,98806.61
2018-07-27T01:26:27.924Z,98805.39
2018-07-27T01:28:56.344Z,98799.44
2018-07-27T01:31:24.876Z,98793.47
2018-07-27T01:33:53.559Z,98802.80
2018-07-27T01:36:22.139Z,98794.66
2018-07-27T01:38:50.546Z,98802.69
2018-07-27T01:41:19.011Z,98801.75
2018-07-27T01:43:47.446Z,98801.12
2018-07-27T01:46:15.996Z,98807.95
2018-07-27T01:48:44.407Z,98801.73
2018-07-27T01:51:12.845Z,98794.38
2018-07-27T01:53:41.792Z,98810.41
2018-07-27T01:56:10.261Z,98805.22
2018-07-27T01:58:38.729Z,98809.77
2018-07-27T02:01:07.198Z,98807.67
2018-07-27T02:03:36.311Z,98800.52
2018-07-27T02:06:05.166Z,98802.59
2018-07-27T02:08:33.607Z,98797.47
2018-07-27T02:11:02.037Z,98805.42
2018-07-27T02:13:30.476Z,98802.13
2018-07-27T02:15:59.028Z,98802.16
2018-07-27T02:18:27.541Z,98804.36
2018-07-27T02:20:55.953Z,98800.27
2018-07-27T02:23:24.377Z,98802.63
2018-07-27T02:25:52.787Z,98803.94
2018-07-27T02:28:21.207Z,98801.03
2018-07-27T02:30:49.616Z,98797.64
2018-07-27T02:33:18.055Z,98793.20
2018-07-27T02:35:46.461Z,98794.35
2018-07-27T02:38:14.894Z,98797.08
2018-07-27T02:40:43.377Z,98796.93
2018-07-27T02:43:11.823Z,98795.78
2018-07-27T02:45:40.254Z,98789.05
2018-07-27T02:48:08.727Z,98784.62
2018-07-27T02:50:37.150Z,98792.62
2018-07-27T02:53:05.607Z,98793.97
2018-07-27T02:55:34.048Z,98784.95
2018-07-27T02:58:02.971Z,98784.55
2018-07-27T03:00:31.388Z,98780.77
2018-07-27T03:02:59.864Z,98785.09
2018-07-27T03:05:28.376Z,98779.07
2018-07-27T03:07:57.009Z,98775.48
2018-07-27T03:10:25.453Z,98772.98
2018-07-27T03:12:53.870Z,98774.69
2018-07-27T03:15:22.999Z,98780.54
2018-07-27T03:17:51.727Z,98778.09
2018-07-27T03:20:20.746Z,98775.80
2018-07-27T03:22:49.196Z,98785.38
2018-07-27T03:25:17.608Z,98774.73
2018-07-27T03:27:46.066Z,98772.38
2018-07-27T03:30:15.305Z,98773.95
2018-07-27T03:32:44.582Z,98786.36
2018-07-27T03:35:13.350Z,98782.42
2018-07-27T03:37:42.500Z,98782.01
2018-07-27T03:40:12.061Z,98782.54
2018-07-27T03:42:40.829Z,98780.11
2018-07-27T03:45:10.237Z,98778.75
2018-07-27T03:47:38.968Z,98782.92
2018-07-27T03:50:07.682Z,98782.56
2018-07-27T03:52:36.215Z,98777.52
2018-07-27T03:55:05.111Z,98778.37
2018-07-27T03:57:33.785Z,98778.41
2018-07-27T04:00:02.430Z,98781.32
2018-07-27T04:02:31.196Z,98780.88
2018-07-27T04:04:59.818Z,98780.59
2018-07-27T04:07:29.143Z,98779.48
2018-07-27T04:09:58.437Z,98782.92
2018-07-27T04:12:27.508Z,98784.88
2018-07-27T04:14:56.480Z,98788.05
2018-07-27T04:17:25.122Z,98783.64
2018-07-27T04:19:53.983Z,98793.87
2018-07-27T04:22:23.423Z,98791.17
2018-07-27T04:24:52.752Z,98785.38
2018-07-27T04:27:21.267Z,98789.49
2018-07-27T04:29:49.982Z,98794.58
2018-07-27T04:32:18.562Z,98793.56
2018-07-27T04:34:48.000Z,98788.85
2018-07-27T04:37:16.672Z,98801.01
2018-07-27T04:39:45.476Z,98797.20
2018-07-27T04:42:15.029Z,98798.78
2018-07-27T04:44:44.715Z,98792.84
2018-07-27T04:47:13.194Z,98794.80
2018-07-27T04:49:42.559Z,98796.46
2018-07-27T04:52:11.221Z,98791.23
2018-07-27T04:54:40.574Z,98789.49
2018-07-27T04:57:09.044Z,98791.89
2018-07-27T04:59:37.755Z,98790.50
2018-07-27T05:02:06.648Z,98796.56
2018-07-27T05:04:35.243Z,98794.94
2018-07-27T05:07:03.865Z,98797.66
2018-07-27T05:09:32.397Z,98793.97
2018-07-27T05:12:00.904Z,98800.52
2018-07-27T05:14:29.440Z,98795.37
2018-07-27T05:16:57.898Z,98795.50
2018-07-27T05:19:26.466Z,98797.27
2018-07-27T05:21:55.039Z,98796.13
2018-07-27T05:24:23.536Z,98795.36
2018-07-27T05:26:52.128Z,98802.41
2018-07-27T05:29:20.626Z,98796.63
2018-07-27T05:31:49.449Z,98796.78
2018-07-27T05:34:18.112Z,98796.20
2018-07-27T05:36:46.671Z,98800.19
2018-07-27T05:39:15.241Z,98803.75
2018-07-27T05:41:43.941Z,98797.11
2018-07-27T05:44:12.396Z,98799.68
2018-07-27T05:46:40.956Z,98800.98
2018-07-27T05:49:09.578Z,98804.95
2018-07-27T05:51:38.161Z,98801.22
2018-07-27T05:54:06.871Z,98806.31
2018-07-27T05:56:35.539Z,98801.92
2018-07-27T05:59:04.147Z,98802.00
2018-07-27T06:01:32.977Z,98796.72
2018-07-27T06:04:01.954Z,98800.62
2018-07-27T06:06:30.431Z,98802.32
2018-07-27T06:08:59.044Z,98796.56
2018-07-27T06:11:28.143Z,98795.69
2018-07-27T06:13:56.655Z,98791.72
2018-07-27T06:16:25.234Z,98796.42
2018-07-27T06:18:54.014Z,98788.15
2018-07-27T06:21:22.546Z,98791.61
2018-07-27T06:23:51.047Z,98796.07
2018-07-27T06:26:19.683Z,98791.41
2018-07-27T06:28:48.271Z,98787.72
2018-07-27T06:31:17.479Z,98792.25
2018-07-27T06:33:46.111Z,98788.97
2018-07-27T06:36:15.074Z,98792.78
2018-07-27T06:38:43.591Z,98791.08
2018-07-27T06:41:12.148Z,98798.65
2018-07-27T06:43:40.676Z,98796.73
2018-07-27T06:46:09.205Z,98787.08
2018-07-27T06:48:37.713Z,98783.36
2018-07-27T06:51:06.238Z,98793.52
2018-07-27T06:53:34.725Z,98789.27
2018-07-27T06:56:03.209Z,98792.45
2018-07-27T06:58:31.811Z,98792.55
2018-07-27T07:01:00.339Z,98789.72
2018-07-27T07:03:28.820Z,98791.13
2018-07-27T07:05:57.356Z,98788.82
2018-07-27T07:08:25.857Z,98791.28
2018-07-27T07:10:54.656Z,98787.95
2018-07-27T07:13:23.663Z,98793.88
2018-07-27T07:15:52.243Z,98789.53
2018-07-27T07:18:20.931Z,98788.98
2018-07-27T07:20:51.722Z,98792.27
2018-07-27T07:23:20.500Z,98785.86
2018-07-27T07:25:49.211Z,98792.22
2018-07-27T07:28:17.556Z,98795.14
2018-07-27T07:30:46.114Z,98785.45
2018-07-27T07:33:14.671Z,98786.23
2018-07-27T07:35:43.413Z,98780.73
2018-07-27T07:38:11.934Z,98778.45
2018-07-27T07:40:40.507Z,98777.20
2018-07-27T07:43:08.999Z,98780.44
2018-07-27T07:45:37.521Z,98770.05
2018-07-27T07:48:06.415Z,98770.48
2018-07-27T07:50:34.887Z,98767.77
2018-07-27T07:53:03.454Z,98767.95
2018-07-27T07:55:31.848Z,98771.32
2018-07-27T07:58:00.393Z,98744.23
2018-07-27T08:00:28.792Z,98765.45
2018-07-27T08:02:57.268Z,98756.30
2018-07-27T08:05:25.756Z,98762.33
2018-07-27T08:07:54.408Z,98758.08
2018-07-27T08:10:23.443Z,98756.95
2018-07-27T08:12:52.032Z,98750.82
2018-07-27T08:15:20.519Z,98746.54
2018-07-27T08:17:48.948Z,98746.84
2018-07-27T08:20:18.543Z,98741.50
2018-07-27T08:22:47.044Z,98741.97
2018-07-27T08:25:15.447Z,98738.42
2018-07-27T08:27:44.185Z,98734.92
2018-07-27T08:30:15.248Z,98741.31
2018-07-27T08:32:43.716Z,98735.94
2018-07-27T08:35:12.179Z,98724.25
2018-07-27T08:37:40.672Z,98727.27
2018-07-27T08:40:09.121Z,98714.33
2018-07-27T08:42:37.603Z,98722.77
2018-07-27T08:45:06.076Z,98719.91
2018-07-27T08:47:34.547Z,98717.62
2018-07-27T08:50:03.013Z,98712.39
2018-07-27T08:52:31.503Z,98709.46
2018-07-27T08:54:59.912Z,98714.68
2018-07-27T08:57:28.336Z,98709.80
2018-07-27T08:59:56.825Z,98715.19
2018-07-27T09:02:25.280Z,98710.08
2018-07-27T09:04:53.744Z,98706.14
2018-07-27T09:07:22.183Z,98704.02
2018-07-27T09:09:50.778Z,98700.29
2018-07-27T09:12:19.185Z,98702.86
2018-07-27T09:14:47.673Z,98699.64
2018-07-27T09:17:16.112Z,98701.80
2018-07-27T09:19:44.631Z,98696.73
2018-07-27T09:22:13.057Z,98699.21
2018-07-27T09:24:41.568Z,98694.86
2018-07-27T09:27:09.934Z,98696.20
2018-07-27T09:29:38.364Z,98692.64
2018-07-27T09:32:06.777Z,98691.75
2018-07-27T09:34:35.327Z,98686.95
2018-07-27T09:37:03.719Z,98683.19
2018-07-27T09:39:32.204Z,98689.34
2018-07-27T09:42:00.651Z,98683.59
2018-07-27T09:44:29.107Z,98679.28
2018-07-27T09:46:57.544Z,98673.41
2018-07-27T09:49:27.340Z,98677.59
2018-07-27T09:51:55.805Z,98675.92
2018-07-27T09:54:24.248Z,98675.27
2018-07-27T09:56:53.325Z,98669.64
2018-07-27T09:59:23.201Z,98666.38
2018-07-27T10:01:52.225Z,98675.94
2018-07-27T10:04:20.660Z,98667.82
2018-07-27T10:06:49.041Z,98669.32
2018-07-27T10:09:17.471Z,98666.05
2018-07-27T10:11:46.483Z,98665.61
2018-07-27T10:14:14.980Z,98670.36
2018-07-27T10:16:43.439Z,98669.17
2018-07-27T10:19:12.034Z,98670.59
2018-07-27T10:21:40.540Z,98672.73
2018-07-27T10:24:09.041Z,98664.18
2018-07-27T10:26:37.447Z,98660.81
2018-07-27T10:29:06.807Z,98671.90
2018-07-27T10:31:35.396Z,98661.57
2018-07-27T10:34:03.869Z,98661.23
2018-07-27T10:36:32.591Z,98661.16
2018-07-27T10:39:01.161Z,98661.26
2018-07-27T10:41:29.728Z,98657.92
2018-07-27T16:28:11.371Z,98341.13
2018-07-27T16:32:31.855Z,98336.80
2018-07-27T16:35:01.408Z,98337.16
2018-07-27T16:37:30.222Z,98335.66
2018-07-27T16:40:01.164Z,98337.69
2018-07-27T16:42:29.683Z,98328.77
2018-07-27T16:44:58.665Z,98333.02
2018-07-27T16:47:27.899Z,98262.05
2018-07-27T16:49:56.847Z,98339.80
2018-07-27T16:52:25.300Z,98338.34
2018-07-27T16:54:54.964Z,98335.63
2018-07-27T16:57:23.741Z,98328.34
2018-07-27T16:59:52.800Z,98325.05
2018-07-27T17:02:32.068Z,98326.44
2018-07-27T17:07:58.505Z,98168.45
2018-07-27T17:13:22.097Z,98323.67
2018-07-27T17:16:03.816Z,98326.33
2018-07-27T17:18:38.381Z,98321.03
2018-07-27T17:21:08.207Z,98325.05
2018-07-27T17:23:38.855Z,98322.55
2018-07-27T17:26:09.588Z,98319.53
2018-07-27T17:28:40.354Z,98313.75
2018-07-27T17:31:09.235Z,98316.32
2018-07-27T17:34:08.840Z,98309.86
2018-07-27T17:36:38.964Z,98305.81
2018-07-27T17:39:18.107Z,98311.56
2018-07-27T17:41:47.716Z,98309.02
2018-07-27T17:44:17.884Z,98310.73
2018-07-27T17:46:46.549Z,98315.27
2018-07-27T17:49:15.018Z,98314.64
2018-07-27T17:51:43.374Z,98306.97
2018-07-27T17:54:12.188Z,98308.52
2018-07-27T17:56:40.691Z,98311.47
2018-07-27T17:59:10.775Z,98310.58
2018-07-27T18:01:39.238Z,98309.45
2018-07-27T18:04:07.873Z,98308.84
2018-07-27T18:06:36.760Z,98313.34
2018-07-27T18:09:08.768Z,98308.41
2018-07-27T18:11:37.329Z,98310.42
2018-07-27T18:14:06.949Z,98308.87
2018-07-27T18:16:35.294Z,98306.83
2018-07-27T18:19:04.603Z,98304.82
2018-07-27T18:21:33.003Z,98309.73
2018-07-27T18:24:02.237Z,98306.80
2018-07-27T18:26:31.810Z,98310.41
2018-07-27T18:29:01.449Z,98311.27
2018-07-27T18:31:29.836Z,98305.59
2018-07-27T18:33:59.183Z,98316.39
2018-07-27T18:36:28.421Z,98316.70
2018-07-27T18:38:56.900Z,98316.56
2018-07-27T18:41:25.451Z,98325.05
2018-07-27T18:43:54.778Z,98313.58
2018-07-27T18:46:24.143Z,98321.80
2018-07-27T18:48:54.165Z,98322.65
2018-07-27T18:51:23.459Z,98322.95
2018-07-27T18:53:53.093Z,98323.75
2018-07-27T18:56:21.503Z,98324.02
2018-07-27T18:58:49.967Z,98320.36
2018-07-27T19:01:18.450Z,98321.51
2018-07-27T19:03:47.154Z,98325.33
2018-07-27T19:06:16.619Z,98330.42
2018-07-27T19:08:45.603Z,98331.22
2018-07-27T19:11:15.550Z,98333.43
2018-07-27T19:13:46.367Z,98335.02
2018-07-27T19:16:15.170Z,98345.61
2018-07-27T19:18:44.312Z,98345.59
2018-07-27T19:21:14.405Z,98348.00
2018-07-27T19:23:43.150Z,98354.44
2018-07-27T19:26:14.029Z,98351.39
2018-07-27T19:28:42.955Z,98351.75
2018-07-27T19:31:11.582Z,98353.84
2018-07-27T19:33:40.364Z,98358.69
2018-07-27T19:36:13.036Z,98355.98
2018-07-27T19:38:42.265Z,98364.91
2018-07-27T19:41:11.134Z,98367.78
2018-07-27T19:43:40.803Z,98372.86
2018-07-27T19:46:10.466Z,98375.64
2018-07-27T19:48:39.488Z,98378.30
2018-07-27T19:51:09.516Z,98383.98
2018-07-27T19:53:39.406Z,98380.05
2018-07-27T19:56:08.083Z,98379.42
2018-07-27T19:58:36.499Z,98382.86
2018-07-27T20:01:05.630Z,98381.27
2018-07-27T20:03:34.108Z,98384.63
2018-07-27T20:06:02.774Z,98374.44
2018-07-27T20:08:31.153Z,98375.00
2018-07-27T20:10:59.692Z,98371.36
2018-07-27T20:13:28.091Z,98376.67
2018-07-27T20:15:56.790Z,98374.59
2018-07-27T20:18:25.214Z,98378.23
2018-07-27T20:20:54.032Z,98384.73
2018-07-27T20:23:23.706Z,98382.73
2018-07-27T20:25:52.646Z,98383.53
2018-07-27T20:28:21.025Z,98391.08
2018-07-27T20:30:49.409Z,98374.08
2018-07-27T20:33:18.524Z,98372.63
2018-07-27T20:35:47.451Z,98373.62
2018-07-27T20:38:15.845Z,98365.89
2018-07-27T20:40:44.732Z,98367.06
2018-07-27T20:43:14.151Z,98364.95
2018-07-27T20:45:43.013Z,98362.14
2018-07-27T20:48:12.158Z,98359.36
2018-07-27T20:50:41.425Z,98359.83
2018-07-27T20:53:10.039Z,98362.39
2018-07-27T20:55:38.771Z,98361.90
2018-07-27T20:58:08.529Z,98360.48
2018-07-27T21:00:37.633Z,98356.70
2018-07-27T21:03:07.007Z,98368.17
2018-07-27T21:05:35.409Z,98359.16
2018-07-27T21:08:03.937Z,98365.67
2018-07-27T21:10:32.329Z,98267.67
2018-07-27T21:13:01.551Z,98371.75
2018-07-27T21:15:30.243Z,98371.64
2018-07-27T21:17:59.578Z,98367.11
2018-07-27T21:20:28.881Z,98365.98
2018-07-27T21:22:57.224Z,98363.13
2018-07-27T21:25:26.012Z,98361.43
2018-07-27T21:27:55.084Z,98354.70
2018-07-27T21:30:23.880Z,98358.76
2018-07-27T21:32:52.237Z,98359.52
2018-07-27T21:35:20.614Z,98365.31
2018-07-27T21:37:49.626Z,98364.67
2018-07-27T21:40:19.003Z,98364.83
2018-07-27T21:42:48.005Z,98369.77
2018-07-27T21:45:17.309Z,98360.28
2018-07-27T21:47:47.037Z,98362.86
2018-07-27T21:50:15.429Z,98363.57
2018-07-27T21:52:43.804Z,98367.94
2018-07-27T21:55:12.408Z,98368.09
2018-07-27T21:57:40.730Z,98369.03
2018-07-27T22:00:10.356Z,98363.63
2018-07-27T22:02:38.739Z,98367.88
2018-07-27T22:05:07.531Z,98362.61
2018-07-27T22:07:36.334Z,98367.73
2018-07-27T22:10:05.211Z,98364.95
2018-07-27T22:12:33.781Z,98364.66
2018-07-27T22:15:02.517Z,98360.92
2018-07-27T22:17:31.183Z,98366.84
2018-07-27T22:20:01.320Z,98367.65
2018-07-27T22:22:31.001Z,98367.43
2018-07-27T22:24:59.840Z,98374.58
2018-07-27T22:27:28.489Z,98375.63
2018-07-27T22:29:56.906Z,98377.13
2018-07-27T22:32:25.481Z,98375.63
2018-07-27T22:34:53.825Z,98378.52
2018-07-27T22:37:22.188Z,98375.03
2018-07-27T22:39:51.032Z,98370.45
2018-07-27T22:42:19.778Z,98361.51
2018-07-27T22:44:48.180Z,98353.47
2018-07-27T22:47:16.561Z,98354.62
2018-07-27T22:49:45.285Z,98347.86
2018-07-27T22:52:15.065Z,98340.43
2018-07-27T22:54:44.225Z,98338.94
2018-07-27T22:57:15.148Z,98331.92
2018-07-27T22:59:43.925Z,98341.42
2018-07-27T23:02:13.285Z,98342.75
2018-07-27T23:04:43.712Z,98339.21
2018-07-27T23:07:12.414Z,98342.67
2018-07-27T23:09:41.316Z,98341.91
2018-07-27T23:12:09.668Z,98335.65
2018-07-27T23:14:39.137Z,98340.97
2018-07-27T23:17:07.954Z,98341.02
2018-07-27T23:19:37.202Z,98339.03
2018-07-27T23:22:05.599Z,98334.95
2018-07-27T23:24:34.676Z,98342.84
2018-07-27T23:27:03.542Z,98349.76
2018-07-27T23:29:32.016Z,98354.47
2018-07-27T23:32:00.720Z,98348.23
2018-07-27T23:34:29.775Z,98347.30
2018-07-27T23:36:58.719Z,98353.13
2018-07-27T23:39:27.112Z,98350.98
2018-07-27T23:41:56.287Z,98345.32
2018-07-27T23:44:24.624Z,98337.66
2018-07-27T23:46:53.567Z,98326.63
2018-07-27T23:49:23.368Z,98328.37
2018-07-27T23:51:52.263Z,98322.27
2018-07-27T23:54:20.886Z,98320.62
2018-07-27T23:56:49.728Z,98318.50
2018-07-27T23:59:19.047Z,98316.28
